Nearby METAR Reports

 

KSNK - Snyder/Winston, Texas, USA
Distance from station: SSE 25mi, 41km
Updated: Tue, 25-Jan-2022 9:55pm CST
Clear
Clear
 Wind from NE
Wind: NE 22 mph , 35 km/h, Gust: 29 mph , 46 km/h
Temperature: 43°F , 6°C
Wind Chill: 34°F , 1°C
Dew Point: 19°F , -7°C
Humidity: 39%
Barometer: 30.19 inHg , 1022.4 hPa
Clouds: Clear
Visibility: 10 miles , 16 km
2022/01/26 03:55 KSNK 260355Z AUTO 05019G25KT 10SM CLR 06/M07 A3019 RMK AO2 T00551071
KSWW - Sweetwater, Texas, USA
Distance from station: SE 56mi, 90km
Updated: Tue, 25-Jan-2022 9:55pm CST
Clear
Clear
 Wind from NNE
Wind: NNE 13 mph , 20 km/h
Temperature: 43°F , 6°C
Wind Chill: 36°F , 2°C
Dew Point: 27°F , -3°C
Humidity: 53%
Barometer: 30.22 inHg , 1023.4 hPa
Clouds: Clear
Visibility: 10 miles , 16 km
2022/01/26 03:55 KSWW 260355Z AUTO 03011KT 10SM CLR 06/M03 A3022 RMK AO2 T00551034
 
KLBB - Lubbock, Texas, USA
Distance from station: NW 59mi, 94km
Updated: Tue, 25-Jan-2022 9:53pm CST
Clear
Clear
 Wind from ENE
Wind: ENE 20 mph , 31 km/h, Gust: 31 mph , 50 km/h
Temperature: 30°F , -1°C
Wind Chill: 17°F , -8°C
Dew Point: 12°F , -11°C
Humidity: 47%
Barometer: 30.20 inHg , 1022.7 hPa
Clouds: Clear
Visibility: 10 miles , 16 km
2022/01/26 03:53 KLBB 260353Z 06017G27KT 10SM CLR M01/M11 A3020 RMK AO2 PK WND 07033/0300 SLP231 T10111111
KPVW - Plainview, Texas, USA
Distance from station: NNW 85mi, 137km
Updated: Tue, 25-Jan-2022 9:55pm CST
Clear
Clear
 Wind from ENE
Wind: ENE 21 mph , 33 km/h, Gust: 26 mph , 43 km/h
Temperature: 27°F , -3°C
Wind Chill: 13°F , -11°C
Dew Point: 10°F , -12°C
Humidity: 50%
Barometer: 30.24 inHg , 1024 hPa
Clouds: Clear
Visibility: 10 miles , 16 km
2022/01/26 03:55 KPVW 260355Z AUTO 06018G23KT 10SM CLR M03/M12 A3024 RMK AO2 T10321123
 
KDYS - Dyess Afb/Abilen, Texas, USA
Distance from station: ESE 88mi, 141km
Updated: Tue, 25-Jan-2022 8:57pm CST
NOT Current
Clear
Clear
 Wind from NE
Wind: NE 10 mph , 17 km/h
Temperature: 46°F , 8°C
Wind Chill: 41°F , 5°C
Dew Point: 27°F , -3°C
Humidity: 46%
Barometer: 30.14 inHg , 1020.7 hPa
Clouds: Clear
Visibility: 7 miles , 11 km
2022/01/26 02:57 KDYS 260257Z 05009KT 7SM CLR 08/M03 A3014 RMK AO2A SLPNO RVRNO $
KGNC - Seminole, Texas, USA
Distance from station: WSW 89mi, 144km
Updated: Tue, 25-Jan-2022 9:55pm CST
Clear
Clear
 Wind from E
Wind: E 16 mph , 26 km/h
Temperature: 41°F , 5°C
Wind Chill: 33°F , 1°C
Dew Point: 25°F , -4°C
Humidity: 53%
Barometer: 30.17 inHg , 1021.7 hPa
Clouds: Clear
Visibility: 10 miles , 16 km
2022/01/26 03:55 KGNC 260355Z AUTO 09014KT 10SM CLR 05/M04 A3017 RMK AO2 T00501043
 
KE11 - Andrews, Texas, USA
Distance from station: WSW 93mi, 149km
Updated: Tue, 25-Jan-2022 9:55pm CST
Clear
Clear
 Wind from E
Wind: E 16 mph , 26 km/h, Gust: 26 mph , 43 km/h
Temperature: 45°F , 7°C
Wind Chill: 38°F , 3°C
Dew Point: 27°F , -3°C
Humidity: 49%
Barometer: 30.13 inHg , 1020.3 hPa
Clouds: Clear
Visibility: 10 miles , 16 km
2022/01/26 03:55 KE11 260355Z AUTO 08014G23KT 10SM CLR 07/M03 A3013 RMK AO2 T00651035
KABI - Abilene, Texas, USA
Distance from station: ESE 96mi, 154km
Updated: Tue, 25-Jan-2022 9:52pm CST
Clear
Clear
 Wind from ENE
Wind: ENE 13 mph , 20 km/h, Gust: 21 mph , 33 km/h
Temperature: 46°F , 8°C
Wind Chill: 40°F , 4°C
Dew Point: 28°F , -2°C
Humidity: 50%
Barometer: 30.22 inHg , 1023.4 hPa
Clouds: Clear
Visibility: 10 miles , 16 km
2022/01/26 03:52 KABI 260352Z 07011G18KT 10SM CLR 08/M02 A3022 RMK AO2 SLP230 T00781017
 
KMAF - Midland, Texas, USA
Distance from station: SW 96mi, 154km
Updated: Tue, 25-Jan-2022 9:53pm CST
Clear
Clear
 Wind from E
Wind: E 14 mph , 22 km/h
Temperature: 46°F , 8°C
Wind Chill: 40°F , 4°C
Dew Point: 34°F , 1°C
Humidity: 62%
Barometer: 30.11 inHg , 1019.6 hPa
Clouds: Clear
Visibility: 10 miles , 16 km
2022/01/26 03:53 KMAF 260353Z 09012KT 10SM CLR 08/01 A3011 RMK AO2 SLP185 T00780006
KCDS - Childress, Texas, USA
Distance from station: NNE 110mi, 177km
Updated: Tue, 25-Jan-2022 9:53pm CST
Clear
Clear
 Wind from NE
Wind: NE 12 mph , 19 km/h, Gust: 22 mph , 35 km/h
Temperature: 28°F , -2°C
Wind Chill: 18°F , -8°C
Dew Point: 9°F , -13°C
Humidity: 43%
Barometer: 30.34 inHg , 1027.4 hPa
Clouds: Clear
Visibility: 10 miles , 16 km
2022/01/26 03:53 KCDS 260353Z AUTO 04010G19KT 10SM CLR M02/M13 A3034 RMK AO2 SLP285 T10171133
 
KSJT - San Angelo, Texas, USA
Distance from station: SSE 121mi, 194km
Updated: Tue, 25-Jan-2022 9:51pm CST
Clear
Clear
 Wind from E
Wind: E 6 mph , 9 km/h
Temperature: 39°F , 4°C
Wind Chill: 35°F , 2°C
Dew Point: 34°F , 1°C
Humidity: 81%
Barometer: 30.15 inHg , 1021 hPa
Clouds: Clear
Visibility: 10 miles , 16 km
2022/01/26 03:51 KSJT 260351Z AUTO 09005KT 10SM CLR 04/01 A3015 RMK AO2 SLP214 T00440011
KHOB - Hobbs/Lea Co., New Mexico, USA
Distance from station: WSW 122mi, 196km
Updated: Tue, 25-Jan-2022 9:55pm CST
Few Clouds
Few Clouds
 Wind from ENE
Wind: ENE 17 mph , 28 km/h, Gust: 26 mph , 43 km/h
Temperature: 41°F , 5°C
Wind Chill: 33°F , 1°C
Dew Point: 25°F , -4°C
Humidity: 53%
Barometer: 30.10 inHg , 1019.3 hPa
Clouds: Few Clouds
Visibility: 10 miles , 16 km
Cloud details: Few Clouds 5000 ft
2022/01/26 03:55 KHOB 260355Z AUTO 07015G23KT 10SM FEW050 05/M04 A3010 RMK AO2
 
KCOM - Coleman Muni, Texas, USA
Distance from station: SE 131mi, 212km
Updated: Tue, 25-Jan-2022 9:55pm CST
Clear
Clear
 Wind from E
Wind: E 7 mph , 11 km/h
Temperature: 43°F , 6°C
Wind Chill: 39°F , 4°C
Dew Point: 34°F , 1°C
Humidity: 71%
Barometer: 30.20 inHg , 1022.7 hPa
Clouds: Clear
Visibility: 10 miles , 16 km
2022/01/26 03:55 KCOM 260355Z AUTO 09006KT 10SM CLR 06/01 A3020 RMK AO2 T00610010
KBKD - Breckenridge, Texas, USA
Distance from station: E 134mi, 215km
Updated: Tue, 25-Jan-2022 9:55pm CST
Clear
Clear
 Wind from ENE
Wind: ENE 7 mph , 11 km/h
Temperature: 46°F , 8°C
Wind Chill: 42°F , 6°C
Dew Point: 27°F , -3°C
Humidity: 46%
Barometer: 30.24 inHg , 1024 hPa
Clouds: Clear
Visibility: 10 miles , 16 km
2022/01/26 03:55 KBKD 260355Z AUTO 07006KT 10SM CLR 08/M03 A3024 RMK AO2 T00771030
 
KF05 - Vernon Wilbarger, Texas, USA
Distance from station: NE 137mi, 220km
Updated: Tue, 25-Jan-2022 9:55pm CST
Clear
Clear
 Wind from NNE
Wind: NNE 14 mph , 22 km/h, Gust: 21 mph , 33 km/h
Temperature: 32°F , 0°C
Wind Chill: 22°F , -6°C
Dew Point: 10°F , -12°C
Humidity: 40%
Barometer: 30.36 inHg , 1028.1 hPa
Clouds: Clear
Visibility: 10 miles , 16 km
2022/01/26 03:55 KF05 260355Z AUTO 03012G18KT 10SM CLR 00/M12 A3036 RMK AO2 T00001125